createdAt,value
2019-06-08T00:01:06.911Z,15.30
2019-06-08T00:03:35.684Z,15.30
2019-06-08T00:06:04.567Z,15.30
2019-06-08T00:08:33.403Z,15.20
2019-06-08T00:11:02.415Z,15.20
2019-06-08T00:13:31.181Z,15.30
2019-06-08T00:15:59.990Z,15.30
2019-06-08T00:18:28.774Z,15.30
2019-06-08T00:20:57.595Z,15.30
2019-06-08T00:23:26.443Z,15.20
2019-06-08T00:25:55.386Z,15.20
2019-06-08T00:28:24.768Z,15.10
2019-06-08T00:30:53.640Z,15.10
2019-06-08T00:33:22.661Z,15.20
2019-06-08T00:35:51.683Z,15.10
2019-06-08T00:38:21.033Z,15.10
2019-06-08T00:40:49.976Z,15.10
2019-06-08T00:43:19.161Z,15.00
2019-06-08T00:45:48.217Z,15.10
2019-06-08T00:48:16.990Z,15.00
2019-06-08T00:50:45.825Z,15.00
2019-06-08T00:53:14.690Z,15.00
2019-06-08T00:55:43.481Z,15.20
2019-06-08T00:58:12.350Z,15.20
2019-06-08T01:00:41.186Z,15.20
2019-06-08T01:03:09.951Z,15.30
2019-06-08T01:05:38.791Z,15.20
2019-06-08T01:08:07.647Z,15.10
2019-06-08T01:10:36.409Z,15.10
2019-06-08T01:13:05.633Z,15.20
2019-06-08T01:15:34.811Z,15.20
2019-06-08T01:18:04.382Z,15.20
2019-06-08T01:20:33.379Z,15.20
2019-06-08T01:23:02.165Z,15.30
2019-06-08T01:25:31.058Z,15.30
2019-06-08T01:27:59.903Z,15.30
2019-06-08T01:30:30.400Z,15.20
2019-06-08T01:32:59.372Z,15.20
2019-06-08T01:35:28.882Z,15.10
2019-06-08T01:37:58.556Z,15.10
2019-06-08T01:40:27.530Z,15.00
2019-06-08T01:42:56.580Z,15.10
2019-06-08T01:45:32.809Z,15.00
2019-06-08T01:48:18.848Z,14.90
2019-06-08T01:50:35.045Z,14.90
2019-06-08T01:53:03.803Z,14.90
2019-06-08T01:55:33.251Z,15.00
2019-06-08T01:58:02.157Z,14.90
2019-06-08T02:00:37.730Z,14.80
2019-06-08T02:03:01.750Z,14.80
2019-06-08T02:05:30.672Z,14.80
2019-06-08T02:07:59.800Z,14.80
2019-06-08T02:10:28.945Z,14.70
2019-06-08T02:12:58.004Z,14.80
2019-06-08T02:15:29.110Z,14.80
2019-06-08T02:17:58.078Z,14.80
2019-06-08T02:20:26.912Z,14.70
2019-06-08T02:22:55.794Z,14.70
2019-06-08T02:25:29.395Z,14.70
2019-06-08T02:27:58.742Z,14.60
2019-06-08T02:30:34.233Z,14.50
2019-06-08T02:33:02.345Z,14.50
2019-06-08T02:35:32.793Z,14.60
2019-06-08T02:38:01.741Z,14.60
2019-06-08T02:40:32.465Z,14.50
2019-06-08T02:43:01.135Z,14.50
2019-06-08T02:45:31.846Z,14.50
2019-06-08T02:48:00.532Z,14.50
2019-06-08T02:50:50.235Z,14.60
2019-06-08T02:53:19.730Z,14.60
2019-06-08T02:55:49.688Z,14.70
2019-06-08T02:58:19.292Z,14.70
2019-06-08T03:00:50.033Z,14.60
2019-06-08T03:03:18.927Z,14.50
2019-06-08T03:05:50.330Z,14.50
2019-06-08T03:08:20.581Z,14.50
2019-06-08T03:10:53.887Z,14.40
2019-06-08T03:13:22.180Z,14.40
2019-06-08T03:15:51.976Z,14.40
2019-06-08T03:18:20.859Z,14.40
2019-06-08T03:20:49.704Z,14.30
2019-06-08T03:23:18.566Z,14.30
2019-06-08T03:25:52.848Z,14.40
2019-06-08T03:28:17.807Z,14.50
2019-06-08T03:30:53.840Z,14.50
2019-06-08T03:33:17.131Z,14.40
2019-06-08T03:35:55.734Z,14.40
2019-06-08T03:38:16.526Z,14.30
2019-06-08T03:40:45.417Z,14.40
2019-06-08T03:43:15.429Z,14.30
2019-06-08T03:45:45.378Z,14.40
2019-06-08T03:48:14.301Z,14.40
2019-06-08T03:50:44.475Z,14.30
2019-06-08T03:53:13.656Z,14.30
2019-06-08T03:55:46.579Z,14.20
2019-06-08T03:58:13.902Z,14.20
2019-06-08T04:00:42.679Z,14.20
2019-06-08T04:03:11.495Z,14.10
2019-06-08T04:05:42.263Z,14.10
2019-06-08T04:08:11.201Z,14.10
2019-06-08T04:10:41.571Z,14.00
2019-06-08T04:13:11.810Z,14.00
2019-06-08T04:15:42.645Z,13.90
2019-06-08T04:18:11.529Z,13.90
2019-06-08T04:20:42.326Z,13.90
2019-06-08T04:23:10.953Z,13.80
2019-06-08T04:25:40.649Z,13.90
2019-06-08T04:28:10.332Z,13.80
2019-06-08T04:30:40.935Z,13.70
2019-06-08T04:33:09.555Z,13.60
2019-06-08T04:35:40.132Z,13.60
2019-06-08T04:38:09.317Z,13.70
2019-06-08T04:40:39.568Z,13.70
2019-06-08T04:43:08.623Z,13.70
2019-06-08T04:45:38.718Z,13.70
2019-06-08T04:48:09.713Z,13.70
2019-06-08T04:50:38.721Z,13.60
2019-06-08T04:53:08.186Z,13.60
2019-06-08T04:55:38.631Z,13.50
2019-06-08T04:58:07.697Z,13.50
2019-06-08T05:00:36.454Z,13.50
2019-06-08T05:03:05.258Z,13.50
2019-06-08T05:05:34.082Z,13.60
2019-06-08T05:08:02.885Z,13.50
2019-06-08T05:10:31.760Z,13.50
2019-06-08T05:13:00.607Z,13.50
2019-06-08T05:15:29.448Z,13.60
2019-06-08T05:17:58.230Z,13.70
2019-06-08T05:20:38.337Z,13.70
2019-06-08T05:22:57.460Z,13.60
2019-06-08T05:25:26.456Z,13.60
2019-06-08T05:27:55.342Z,13.60
2019-06-08T05:30:24.120Z,13.60
2019-06-08T05:32:53.049Z,13.60
2019-06-08T05:35:21.793Z,13.70
2019-06-08T05:37:50.607Z,13.70
2019-06-08T05:40:19.621Z,13.60
2019-06-08T05:42:49.827Z,13.50
2019-06-08T05:45:19.866Z,13.60
2019-06-08T05:47:49.992Z,13.60
2019-06-08T05:50:19.123Z,13.60
2019-06-08T05:52:48.035Z,13.70
2019-06-08T05:55:18.193Z,13.70
2019-06-08T05:57:48.349Z,13.80
2019-06-08T06:00:17.375Z,14.00
2019-06-08T06:02:46.949Z,14.10
2019-06-08T06:05:16.207Z,14.10
2019-06-08T06:07:45.303Z,14.50
2019-06-08T06:10:14.703Z,14.90
2019-06-08T06:12:45.137Z,15.20
2019-06-08T06:15:16.402Z,15.30
2019-06-08T06:17:46.706Z,15.20
2019-06-08T06:20:16.454Z,15.20
2019-06-08T06:22:45.894Z,15.20
2019-06-08T06:25:16.965Z,15.00
2019-06-08T06:27:45.789Z,14.90
2019-06-08T06:30:15.163Z,15.20
2019-06-08T06:32:44.079Z,15.40
2019-06-08T06:35:14.197Z,15.60
2019-06-08T06:37:43.781Z,15.70
2019-06-08T06:40:14.210Z,15.50
2019-06-08T06:42:43.807Z,15.60
2019-06-08T06:45:13.454Z,15.70
2019-06-08T06:47:42.352Z,15.60
2019-06-08T06:50:11.307Z,15.80
2019-06-08T06:52:40.314Z,16.00
2019-06-08T06:55:09.940Z,15.80
2019-06-08T06:57:38.777Z,15.70
2019-06-08T07:00:09.378Z,15.70
2019-06-08T07:02:38.454Z,15.60
2019-06-08T07:05:07.874Z,15.50
2019-06-08T07:07:36.670Z,15.40
2019-06-08T07:10:07.121Z,15.80
2019-06-08T07:12:36.561Z,16.70
2019-06-08T07:15:07.207Z,17.40
2019-06-08T07:17:36.116Z,17.50
2019-06-08T07:20:10.618Z,17.80
2019-06-08T07:22:39.538Z,17.80
2019-06-08T07:25:08.305Z,18.10
2019-06-08T07:27:37.310Z,18.90
2019-06-08T07:30:10.226Z,18.70
2019-06-08T07:32:39.033Z,18.70
2019-06-08T07:35:08.331Z,18.20
2019-06-08T07:37:37.139Z,17.90
2019-06-08T07:40:07.350Z,17.70
2019-06-08T07:42:36.136Z,17.40
2019-06-08T07:45:06.562Z,17.30
2019-06-08T07:47:35.386Z,17.20
2019-06-08T07:50:07.816Z,17.20
2019-06-08T07:52:36.664Z,17.20
2019-06-08T07:55:06.602Z,17.00
2019-06-08T07:57:35.507Z,17.00
2019-06-08T08:00:09.481Z,16.80
2019-06-08T08:02:37.327Z,16.60
2019-06-08T08:05:07.053Z,16.50
2019-06-08T08:07:35.857Z,16.40
2019-06-08T08:10:09.264Z,16.30
2019-06-08T08:12:38.437Z,16.20
2019-06-08T08:15:09.095Z,16.10
2019-06-08T08:17:37.880Z,16.00
2019-06-08T08:20:07.578Z,16.00
2019-06-08T08:22:38.217Z,15.80
2019-06-08T08:25:08.882Z,15.70
2019-06-08T08:27:37.815Z,15.70
2019-06-08T08:30:08.604Z,15.70
2019-06-08T08:32:38.173Z,15.90
2019-06-08T08:35:08.775Z,16.00
2019-06-08T08:37:38.181Z,16.00
2019-06-08T08:40:09.099Z,16.10
2019-06-08T08:42:38.753Z,16.10
2019-06-08T08:45:08.938Z,16.10
2019-06-08T08:47:38.699Z,16.10
2019-06-08T08:50:08.968Z,16.10
2019-06-08T08:52:40.777Z,15.90
2019-06-08T08:55:08.584Z,15.90
2019-06-08T08:57:38.551Z,16.00
2019-06-08T09:00:08.849Z,16.00
2019-06-08T09:02:37.905Z,16.00
2019-06-08T09:05:08.554Z,16.00
2019-06-08T09:07:38.531Z,15.90
2019-06-08T09:10:11.146Z,16.00
2019-06-08T09:12:38.904Z,16.00
2019-06-08T09:15:08.529Z,16.00
2019-06-08T09:17:38.807Z,16.00
2019-06-08T09:20:15.319Z,16.00
2019-06-08T09:22:52.527Z,16.00
2019-06-08T09:25:13.363Z,16.00
2019-06-08T09:27:40.577Z,15.90
2019-06-08T09:30:09.705Z,15.80
2019-06-08T09:32:38.478Z,15.70
2019-06-08T09:35:09.381Z,15.80
2019-06-08T09:37:37.917Z,15.70
2019-06-08T09:40:07.281Z,15.60
2019-06-08T09:42:36.116Z,15.60
2019-06-08T09:45:08.976Z,15.80
2019-06-08T09:47:38.225Z,16.10
2019-06-08T09:50:09.293Z,16.40
2019-06-08T09:52:41.042Z,17.00
2019-06-08T09:55:10.556Z,17.20
2019-06-08T09:57:39.494Z,17.30
2019-06-08T10:00:18.025Z,17.30
2019-06-08T10:02:39.667Z,17.20
2019-06-08T10:05:08.836Z,17.30
2019-06-08T10:07:38.858Z,17.20
2019-06-08T10:10:09.829Z,17.50
2019-06-08T10:12:41.024Z,17.70
2019-06-08T10:15:11.147Z,17.90
2019-06-08T10:17:40.619Z,17.80
2019-06-08T10:20:10.141Z,17.50
2019-06-08T10:22:39.217Z,17.20
2019-06-08T10:25:11.252Z,17.10
2019-06-08T10:27:40.200Z,17.30
2019-06-08T10:30:10.388Z,18.10
2019-06-08T10:32:39.468Z,19.50
2019-06-08T10:35:10.470Z,21.00
2019-06-08T10:37:39.676Z,21.10
2019-06-08T10:40:09.939Z,21.10
2019-06-08T10:42:40.215Z,21.50
2019-06-08T10:45:13.091Z,21.10
2019-06-08T10:47:40.241Z,20.10
2019-06-08T10:50:15.122Z,19.50
2019-06-08T10:52:40.773Z,19.00
2019-06-08T10:55:12.934Z,18.90
2019-06-08T10:57:41.894Z,19.10
2019-06-08T11:00:20.141Z,19.90
2019-06-08T11:02:43.727Z,20.50
2019-06-08T11:05:14.146Z,20.40
2019-06-08T11:07:43.374Z,19.80
2019-06-08T11:10:12.620Z,19.20
2019-06-08T11:12:41.758Z,18.90
2019-06-08T11:15:11.875Z,18.70
2019-06-08T11:17:40.894Z,18.50
2019-06-08T11:20:11.892Z,18.50
2019-06-08T11:22:40.531Z,18.90
2019-06-08T11:25:15.968Z,19.20
2019-06-08T11:27:39.934Z,19.20
2019-06-08T11:30:19.241Z,19.00
2019-06-08T11:32:40.258Z,18.80
2019-06-08T11:35:12.342Z,19.20
2019-06-08T11:37:41.038Z,19.40
2019-06-08T11:40:12.326Z,19.90
2019-06-08T11:42:40.564Z,20.40
2019-06-08T11:45:12.725Z,21.00
2019-06-08T11:47:40.567Z,21.30
2019-06-08T11:50:13.057Z,21.60
2019-06-08T11:52:40.473Z,22.70
2019-06-08T11:55:12.531Z,22.90
2019-06-08T11:57:40.652Z,22.40
2019-06-08T12:00:23.665Z,21.90
2019-06-08T12:02:41.555Z,21.70
2019-06-08T12:05:12.443Z,21.50
2019-06-08T12:07:41.039Z,21.30
2019-06-08T12:10:12.500Z,21.00
2019-06-08T12:12:40.557Z,20.30
2019-06-08T12:15:11.568Z,19.50
2019-06-08T12:17:39.817Z,18.70
2019-06-08T12:20:14.086Z,18.00
2019-06-08T12:22:40.243Z,17.30
2019-06-08T12:25:10.290Z,17.20
2019-06-08T12:27:40.268Z,18.50
2019-06-08T12:30:17.324Z,19.40
2019-06-08T12:32:39.793Z,19.40
2019-06-08T12:35:10.919Z,19.40
2019-06-08T12:37:39.830Z,19.30
2019-06-08T12:40:11.705Z,19.90
2019-06-08T12:42:39.320Z,23.00
2019-06-08T12:45:09.378Z,26.50
2019-06-08T12:47:38.474Z,26.60
2019-06-08T12:50:09.017Z,26.50
2019-06-08T12:52:39.291Z,25.90
2019-06-08T12:55:14.694Z,25.60
2019-06-08T12:57:39.391Z,25.10
2019-06-08T13:00:11.246Z,23.90
2019-06-08T13:02:40.354Z,22.00
2019-06-08T13:05:12.531Z,21.60
2019-06-08T13:07:39.607Z,21.90
2019-06-08T13:10:08.955Z,21.60
2019-06-08T13:12:40.965Z,21.40
2019-06-08T13:15:11.263Z,21.70
2019-06-08T13:17:40.503Z,21.70
2019-06-08T13:20:20.487Z,21.20
2019-06-08T13:22:48.342Z,21.10
2019-06-08T13:25:35.517Z,20.90
2019-06-08T13:27:48.218Z,20.30
2019-06-08T13:30:22.597Z,19.50
2019-06-08T13:32:48.386Z,18.90
2019-06-08T13:35:19.538Z,18.50
2019-06-08T13:37:47.736Z,18.70
2019-06-08T13:40:19.944Z,18.90
2019-06-08T13:42:48.334Z,19.10
2019-06-08T13:45:18.997Z,19.30
2019-06-08T13:47:50.523Z,19.40
2019-06-08T13:50:21.723Z,19.60
2019-06-08T13:52:49.722Z,19.70
2019-06-08T13:55:36.639Z,19.90
2019-06-08T13:57:49.531Z,20.20
2019-06-08T14:00:22.924Z,20.10
2019-06-08T14:02:50.695Z,20.10
2019-06-08T14:05:30.856Z,20.10
2019-06-08T14:08:00.670Z,19.80
2019-06-08T14:10:38.826Z,19.20
2019-06-08T14:13:08.523Z,18.70
2019-06-08T14:15:37.852Z,18.40
2019-06-08T14:18:08.729Z,18.40
2019-06-08T14:20:38.524Z,18.40
2019-06-08T14:23:09.158Z,18.40
2019-06-08T14:25:47.870Z,18.50
2019-06-08T14:28:08.777Z,18.60
2019-06-08T14:30:37.901Z,18.70
2019-06-08T14:33:08.352Z,18.80
2019-06-08T14:35:37.573Z,18.60
2019-06-08T14:38:06.354Z,18.70
2019-06-08T14:40:37.431Z,18.70
2019-06-08T14:43:05.587Z,18.60
2019-06-08T14:45:34.423Z,18.50
2019-06-08T14:48:03.220Z,18.20
2019-06-08T14:50:32.055Z,18.10
2019-06-08T14:53:00.886Z,18.00
2019-06-08T14:55:33.894Z,17.90
2019-06-08T14:58:00.213Z,18.00
2019-06-08T15:00:29.704Z,18.00
2019-06-08T15:02:59.668Z,17.90
2019-06-08T15:05:32.075Z,17.90
2019-06-08T15:08:00.934Z,17.90
2019-06-08T15:10:31.287Z,17.80
2019-06-08T15:13:00.246Z,17.90
2019-06-08T15:15:32.061Z,18.00
2019-06-08T15:17:59.666Z,18.10
2019-06-08T15:20:28.714Z,18.10
2019-06-08T15:22:58.089Z,18.10
2019-06-08T15:25:29.536Z,18.30
2019-06-08T15:28:01.063Z,18.30
2019-06-08T15:30:30.946Z,18.30
2019-06-08T15:32:58.926Z,18.20
2019-06-08T15:35:27.903Z,18.30
2019-06-08T15:37:58.469Z,18.20
2019-06-08T15:40:27.797Z,18.30
2019-06-08T15:42:58.598Z,18.30
2019-06-08T15:45:30.983Z,18.40
2019-06-08T15:47:58.681Z,18.50
2019-06-08T15:50:28.406Z,18.50
2019-06-08T15:52:59.854Z,18.60
2019-06-08T15:55:31.230Z,18.70
2019-06-08T15:57:58.698Z,18.90
2019-06-08T16:00:29.989Z,19.20
2019-06-08T16:02:58.716Z,19.40
2019-06-08T16:05:27.886Z,19.40
2019-06-08T16:07:56.646Z,19.30
2019-06-08T16:10:26.297Z,19.30
2019-06-08T16:12:55.317Z,19.20
2019-06-08T16:15:24.902Z,19.20
2019-06-08T16:17:53.735Z,19.10
2019-06-08T16:20:22.572Z,19.00
2019-06-08T16:22:51.381Z,18.80
2019-06-08T16:25:20.228Z,18.70
2019-06-08T16:27:49.052Z,18.70
2019-06-08T16:30:18.008Z,18.90
2019-06-08T16:32:46.849Z,19.10
2019-06-08T16:35:15.706Z,19.30
2019-06-08T16:37:44.481Z,19.00
2019-06-08T16:40:13.413Z,19.00
2019-06-08T16:42:42.206Z,19.10
2019-06-08T16:45:11.291Z,19.20
2019-06-08T16:47:43.239Z,19.20
2019-06-08T16:50:23.331Z,19.10
2019-06-08T16:52:42.517Z,19.00
2019-06-08T16:55:11.605Z,18.80
2019-06-08T16:57:41.300Z,18.70
2019-06-08T17:02:40.774Z,18.50
2019-06-08T17:05:09.552Z,18.60
2019-06-08T17:07:39.639Z,18.70
2019-06-08T17:10:08.661Z,18.70
2019-06-08T17:12:37.568Z,18.60
2019-06-08T17:15:06.842Z,18.60
2019-06-08T17:17:36.499Z,18.70
2019-06-08T17:20:08.006Z,18.80
2019-06-08T17:22:36.942Z,18.70
2019-06-08T17:25:08.326Z,18.70
2019-06-08T17:27:37.412Z,18.70
2019-06-08T17:30:10.142Z,18.60
2019-06-08T17:32:40.503Z,18.50
2019-06-08T17:35:09.654Z,18.40
2019-06-08T17:37:39.978Z,18.40
2019-06-08T17:40:09.288Z,18.40
2019-06-08T17:42:39.553Z,18.60
2019-06-08T17:45:09.682Z,18.70
2019-06-08T17:47:38.616Z,18.70
2019-06-08T17:50:07.558Z,18.70
2019-06-08T17:52:37.069Z,18.90
2019-06-08T17:55:06.879Z,18.90
2019-06-08T17:57:44.532Z,18.60
2019-06-08T18:00:08.738Z,18.50
2019-06-08T18:02:40.270Z,18.50
2019-06-08T18:05:09.440Z,18.60
2019-06-08T18:07:40.200Z,18.60
2019-06-08T18:10:09.128Z,18.50
2019-06-08T18:12:40.765Z,18.40
2019-06-08T18:15:09.226Z,18.20
2019-06-08T18:17:42.019Z,18.30
2019-06-08T18:20:12.435Z,18.20
2019-06-08T18:22:43.143Z,18.20
2019-06-08T18:25:12.107Z,18.00
2019-06-08T18:27:43.722Z,17.80
2019-06-08T18:30:13.144Z,17.70
2019-06-08T18:32:44.005Z,17.70
2019-06-08T18:35:13.019Z,17.60
2019-06-08T18:37:42.874Z,17.60
2019-06-08T18:40:13.535Z,17.50
2019-06-08T18:42:43.159Z,17.40
2019-06-08T18:45:15.125Z,17.40
2019-06-08T18:47:43.945Z,17.40
2019-06-08T18:50:12.977Z,17.30
2019-06-08T18:52:44.913Z,17.30
2019-06-08T18:55:13.679Z,17.30
2019-06-08T18:57:42.989Z,17.20
2019-06-08T19:00:14.170Z,17.20
2019-06-08T19:02:44.942Z,17.20
2019-06-08T19:05:13.917Z,17.10
2019-06-08T19:07:43.549Z,17.10
2019-06-08T19:10:15.375Z,17.00
2019-06-08T19:12:44.771Z,17.00
2019-06-08T19:15:17.953Z,16.90
2019-06-08T19:17:54.311Z,16.90
2019-06-08T19:20:17.901Z,16.90
2019-06-08T19:22:53.901Z,16.80
2019-06-08T19:25:17.624Z,16.70
2019-06-08T19:27:51.824Z,16.70
2019-06-08T19:30:20.124Z,16.70
2019-06-08T19:32:51.370Z,16.60
2019-06-08T19:35:18.500Z,16.60
2019-06-08T19:37:53.264Z,16.70
2019-06-08T19:40:18.025Z,16.60
2019-06-08T19:42:56.895Z,16.50
2019-06-08T19:45:18.206Z,16.50
2019-06-08T19:47:47.173Z,16.50
2019-06-08T19:50:17.246Z,16.50
2019-06-08T19:52:51.618Z,16.50
2019-06-08T19:55:18.060Z,16.40
2019-06-08T19:57:49.026Z,16.40
2019-06-08T20:00:18.190Z,16.30
2019-06-08T20:02:47.811Z,16.30
2019-06-08T20:05:17.720Z,16.30
2019-06-08T20:07:47.009Z,16.30
2019-06-08T20:10:17.672Z,16.30
2019-06-08T20:12:48.355Z,16.30
2019-06-08T20:15:18.423Z,16.20
2019-06-08T20:18:00.810Z,16.20
2019-06-08T20:20:33.882Z,16.10
2019-06-08T20:23:02.748Z,16.00
2019-06-08T20:25:31.811Z,16.00
2019-06-08T20:28:00.685Z,16.00
2019-06-08T20:30:29.603Z,16.00
2019-06-08T20:32:58.381Z,15.80
2019-06-08T20:35:28.022Z,15.80
2019-06-08T20:37:57.863Z,15.90
2019-06-08T20:40:27.970Z,15.80
2019-06-08T20:42:57.816Z,15.80
2019-06-08T20:45:28.022Z,15.70
2019-06-08T20:47:58.422Z,15.70
2019-06-08T20:50:27.593Z,15.70
2019-06-08T20:52:57.648Z,15.80
2019-06-08T20:55:28.330Z,15.80
2019-06-08T20:57:57.671Z,15.80
2019-06-08T21:00:26.631Z,15.70
2019-06-08T21:03:01.751Z,15.70
2019-06-08T21:05:27.781Z,15.60
2019-06-08T21:07:58.866Z,15.60
2019-06-08T21:10:28.136Z,15.60
2019-06-08T21:12:58.774Z,15.60
2019-06-08T21:15:27.806Z,15.50
2019-06-08T21:17:56.715Z,15.50
2019-06-08T21:20:25.487Z,15.50
2019-06-08T21:22:56.087Z,15.50
2019-06-08T21:25:24.885Z,15.50
2019-06-08T21:27:54.181Z,15.40
2019-06-08T21:30:24.837Z,15.40
2019-06-08T21:32:56.067Z,15.30
2019-06-08T21:35:24.374Z,15.30
2019-06-08T21:37:54.656Z,15.20
2019-06-08T21:40:23.702Z,15.30
2019-06-08T21:42:55.113Z,15.30
2019-06-08T21:45:23.037Z,15.30
2019-06-08T21:47:52.946Z,15.20
2019-06-08T21:50:22.257Z,15.20
2019-06-08T21:52:51.939Z,15.10
2019-06-08T21:55:21.672Z,15.10
2019-06-08T21:57:52.692Z,15.10
2019-06-08T22:00:38.500Z,15.10
2019-06-08T22:02:53.704Z,15.00
2019-06-08T22:05:22.682Z,14.90
2019-06-08T22:07:51.942Z,15.00
2019-06-08T22:10:20.874Z,15.00
2019-06-08T22:12:50.776Z,14.90
2019-06-08T22:15:20.601Z,14.80
2019-06-08T22:17:51.523Z,14.70
2019-06-08T22:20:19.897Z,14.70
2019-06-08T22:22:48.683Z,14.70
2019-06-08T22:25:17.807Z,14.80
2019-06-08T22:27:46.708Z,14.80
2019-06-08T22:30:34.302Z,14.80
2019-06-08T22:32:47.384Z,14.90
2019-06-08T22:35:16.464Z,14.90
2019-06-08T22:37:45.306Z,14.70
2019-06-08T22:40:17.570Z,14.70
2019-06-08T22:42:47.901Z,14.70
2019-06-08T22:45:17.660Z,14.70
2019-06-08T22:47:47.763Z,14.70
2019-06-08T22:50:18.574Z,14.60
2019-06-08T22:52:47.816Z,14.60
2019-06-08T22:55:18.591Z,14.60
2019-06-08T22:57:47.944Z,14.60
2019-06-08T23:00:21.700Z,14.60
2019-06-08T23:02:49.290Z,14.50
2019-06-08T23:05:18.632Z,14.50
2019-06-08T23:07:48.786Z,14.40
2019-06-08T23:10:17.936Z,14.30
2019-06-08T23:12:47.234Z,14.30
2019-06-08T23:15:18.361Z,14.40
2019-06-08T23:17:47.928Z,14.30
2019-06-08T23:20:18.603Z,14.40
2019-06-08T23:22:47.639Z,14.30
2019-06-08T23:25:18.390Z,14.10
2019-06-08T23:27:48.405Z,14.20
2019-06-08T23:30:18.463Z,14.20
2019-06-08T23:32:47.963Z,14.10
2019-06-08T23:35:18.191Z,14.10
2019-06-08T23:37:47.816Z,14.10
2019-06-08T23:40:17.953Z,14.10
2019-06-08T23:42:47.684Z,14.20
2019-06-08T23:45:18.398Z,14.10
2019-06-08T23:47:48.109Z,14.10
2019-06-08T23:50:17.922Z,14.20
2019-06-08T23:52:47.709Z,14.20
2019-06-08T23:55:18.180Z,14.10
2019-06-08T23:57:47.207Z,14.20
